VDPP/PNH METAR and TAF weather

Enter ICAO airport designator
Station Type Date Time Source
VDPP METAR 2022/06/27 09:00 UTC NOAA

VDPP 270900Z 21004KT 9999 SCT015 FEW017CB 34/23 Q1004 RMK CB


Station Type Date Time Source
VDPP Decoded METAR 2022/06/27 09:00 UTC NOAA

Phnom-Penh / Pochentong, Cambodia (VDPP) 11-33N 104-51E 10M
Jun 27, 2022 - 05:00 AM EDT / 2022.06.27 0900 UTC
Wind: from the SSW (210 degrees) at 5 MPH (4 KT):0
Visibility: greater than 7 mile(s):0
Sky conditions: partly cloudy
Weather: Cumulonimbus clouds observed
Temperature: 93 F (34 C)
Heat index: 101.8 F (38.8 C):1
Dew Point: 73 F (23 C)
Relative Humidity: 52%
Pressure (altimeter): 29.65 in. Hg (1004 hPa)
ob: VDPP 270900Z 21004KT 9999 SCT015 FEW017CB 34/23 Q1004 RMK CB
cycle: 9

Station Type Date Time Source
VDPP TAF 2022/06/27 06:00 UTC NOAA

TAF VDPP 270500Z 2706/2724 23008KT 9999 SCT017
TEMPO 2707/2712 25015G25KT SCT015 FEW017CB SCT040

Example: see airport list